createdAt,value
2023-01-30T00:00:21.225Z,101669.06
2023-01-30T00:02:47.549Z,101667.97
2023-01-30T00:05:13.990Z,101669.06
2023-01-30T00:07:40.375Z,101661.59
2023-01-30T00:10:09.439Z,101647.69
2023-01-30T00:12:35.813Z,101643.75
2023-01-30T00:15:02.149Z,101647.97
2023-01-30T00:17:29.846Z,101646.97
2023-01-30T00:19:56.194Z,101619.16
2023-01-30T00:22:22.509Z,101633.59
2023-01-30T00:24:48.936Z,101637.06
2023-01-30T00:27:15.301Z,101630.88
2023-01-30T00:29:43.230Z,101624.59
2023-01-30T00:32:12.929Z,101607.31
2023-01-30T00:34:40.582Z,101604.50
2023-01-30T00:37:08.644Z,101594.09
2023-01-30T00:39:35.140Z,101593.81
2023-01-30T00:42:01.450Z,101601.78
2023-01-30T00:44:27.780Z,101591.03
2023-01-30T00:46:54.072Z,101576.78
2023-01-30T00:49:20.847Z,101586.25
2023-01-30T00:51:48.545Z,101571.59
2023-01-30T00:54:14.903Z,101570.41
2023-01-30T00:56:41.226Z,101567.84
2023-01-30T00:59:07.529Z,101578.16
2023-01-30T01:01:34.037Z,101575.84
2023-01-30T01:04:00.423Z,101578.91
2023-01-30T01:06:26.768Z,101579.75
2023-01-30T01:08:54.406Z,101581.06
2023-01-30T01:11:20.762Z,101578.22
2023-01-30T01:13:47.107Z,101580.50
2023-01-30T01:16:13.439Z,101572.44
2023-01-30T01:18:39.916Z,101580.56
2023-01-30T01:21:06.259Z,101577.84
2023-01-30T01:23:32.569Z,101587.59
2023-01-30T01:26:02.452Z,101572.66
2023-01-30T01:28:28.799Z,101577.00
2023-01-30T01:30:55.301Z,101561.53
2023-01-30T01:33:21.645Z,101569.75
2023-01-30T01:35:47.985Z,101576.28
2023-01-30T01:38:14.314Z,101570.38
2023-01-30T01:40:45.397Z,101567.47
2023-01-30T01:43:17.218Z,101579.88
2023-01-30T01:45:44.051Z,101560.50
2023-01-30T01:48:12.367Z,101570.09
2023-01-30T01:50:40.780Z,101555.91
2023-01-30T01:53:08.620Z,101556.94
2023-01-30T01:55:35.110Z,101538.94
2023-01-30T01:58:04.644Z,101543.69
2023-01-30T02:00:32.792Z,101540.63
2023-01-30T02:03:01.852Z,101518.34
2023-01-30T02:05:30.660Z,101516.44
2023-01-30T02:08:00.661Z,101518.97
2023-01-30T02:10:32.979Z,101514.88
2023-01-30T02:12:59.274Z,101502.69
2023-01-30T02:15:25.656Z,101496.44
2023-01-30T02:17:53.413Z,101494.34
2023-01-30T02:20:25.757Z,101497.63
2023-01-30T02:23:13.954Z,101488.91
2023-01-30T02:25:50.363Z,101481.94
2023-01-30T02:28:30.115Z,101465.31
2023-01-30T02:31:11.420Z,101474.16
2023-01-30T02:33:45.617Z,101470.03
2023-01-30T02:36:15.535Z,101477.75
2023-01-30T02:38:48.877Z,101468.66
2023-01-30T02:41:21.672Z,101476.25
2023-01-30T02:43:57.113Z,101468.53
2023-01-30T02:46:26.686Z,101462.72
2023-01-30T02:48:56.786Z,101448.63
2023-01-30T02:51:24.057Z,101450.53
2023-01-30T02:53:51.046Z,101442.94
2023-01-30T02:56:19.729Z,101452.19
2023-01-30T02:58:48.435Z,101438.91
2023-01-30T03:01:32.439Z,101430.31
2023-01-30T03:04:09.490Z,101437.06
2023-01-30T03:06:47.268Z,101436.22
2023-01-30T03:09:16.423Z,101436.22
2023-01-30T03:11:45.721Z,101448.13
2023-01-30T03:14:18.157Z,101447.78
2023-01-30T03:16:44.706Z,101440.66
2023-01-30T03:19:12.867Z,101443.94
2023-01-30T03:21:40.685Z,101450.22
2023-01-30T03:24:07.450Z,101441.88
2023-01-30T03:26:34.873Z,101427.34
2023-01-30T03:29:02.208Z,101432.09
2023-01-30T03:31:28.676Z,101423.00
2023-01-30T03:33:55.033Z,101420.78
2023-01-30T03:36:22.686Z,101410.88
2023-01-30T03:38:49.026Z,101411.41
2023-01-30T03:41:15.373Z,101412.38
2023-01-30T03:43:41.692Z,101417.28
2023-01-30T03:46:08.087Z,101416.78
2023-01-30T03:48:34.400Z,101397.00
2023-01-30T03:51:00.702Z,101404.91
2023-01-30T03:53:28.406Z,101397.53
2023-01-30T03:55:54.734Z,101388.66
2023-01-30T03:58:21.046Z,101392.00
2023-01-30T04:00:56.025Z,101392.19
2023-01-30T04:03:23.355Z,101386.47
2023-01-30T04:05:49.787Z,101387.88
2023-01-30T04:08:16.129Z,101388.47
2023-01-30T04:10:43.888Z,101393.88
2023-01-30T04:13:10.233Z,101387.81
2023-01-30T04:15:36.552Z,101382.59
2023-01-30T04:18:06.499Z,101380.44
2023-01-30T04:20:33.581Z,101383.50
2023-01-30T04:22:59.915Z,101390.63
2023-01-30T04:25:26.465Z,101385.47
2023-01-30T04:27:54.331Z,101388.81
2023-01-30T04:30:20.782Z,101379.13
2023-01-30T04:32:47.085Z,101373.00
2023-01-30T04:35:13.588Z,101379.00
2023-01-30T04:37:39.927Z,101373.22
2023-01-30T04:40:07.085Z,101378.06
2023-01-30T04:42:33.402Z,101376.38
2023-01-30T04:45:01.072Z,101370.25
2023-01-30T04:47:27.428Z,101373.00
2023-01-30T04:49:53.739Z,101369.53
2023-01-30T04:52:20.116Z,101377.44
2023-01-30T04:54:46.486Z,101383.19
2023-01-30T04:57:13.005Z,101384.88
2023-01-30T04:59:39.324Z,101383.94
2023-01-30T05:02:07.009Z,101376.66
2023-01-30T05:04:33.337Z,101382.66
2023-01-30T05:06:59.677Z,101392.47
2023-01-30T05:09:26.037Z,101388.88
2023-01-30T05:11:52.514Z,101375.19
2023-01-30T05:14:18.931Z,101370.41
2023-01-30T05:16:45.273Z,101376.44
2023-01-30T05:19:13.021Z,101381.34
2023-01-30T05:21:39.539Z,101388.22
2023-01-30T05:24:06.441Z,101389.41
2023-01-30T05:26:32.760Z,101378.84
2023-01-30T05:28:59.098Z,101375.38
2023-01-30T05:31:25.661Z,101384.66
2023-01-30T05:33:52.267Z,101381.31
2023-01-30T05:36:21.111Z,101383.19
2023-01-30T05:38:47.504Z,101384.97
2023-01-30T05:41:14.943Z,101384.28
2023-01-30T05:43:41.257Z,101380.09
2023-01-30T05:46:07.929Z,101386.31
2023-01-30T05:48:34.431Z,101383.34
2023-01-30T05:51:00.818Z,101387.31
2023-01-30T05:53:29.757Z,101385.00
2023-01-30T05:55:57.006Z,101385.84
2023-01-30T05:58:26.325Z,101382.47
2023-01-30T06:00:52.743Z,101387.22
2023-01-30T06:03:19.045Z,101381.31
2023-01-30T06:05:45.335Z,101375.84
2023-01-30T06:08:11.733Z,101386.94
2023-01-30T06:10:39.440Z,101396.94
2023-01-30T06:13:05.729Z,101410.47
2023-01-30T06:15:32.512Z,101402.94
2023-01-30T06:17:58.848Z,101406.03
2023-01-30T06:20:25.218Z,101405.41
2023-01-30T06:22:51.526Z,101406.03
2023-01-30T06:25:18.162Z,101404.47
2023-01-30T06:27:46.582Z,101401.72
2023-01-30T06:30:13.137Z,101394.19
2023-01-30T06:32:39.450Z,101410.59
2023-01-30T06:35:06.126Z,101405.84
2023-01-30T06:37:32.490Z,101415.78
2023-01-30T06:39:58.803Z,101417.84
2023-01-30T06:42:25.137Z,101420.13
2023-01-30T06:44:52.915Z,101412.41
2023-01-30T06:47:19.231Z,101401.59
2023-01-30T06:49:45.512Z,101407.63
2023-01-30T06:52:11.826Z,101408.94
2023-01-30T06:54:38.126Z,101400.06
2023-01-30T06:57:04.433Z,101416.28
2023-01-30T06:59:30.718Z,101422.50
2023-01-30T07:01:58.399Z,101426.59
2023-01-30T07:04:24.863Z,101440.38
2023-01-30T07:06:51.215Z,101435.38
2023-01-30T07:09:17.653Z,101425.06
2023-01-30T07:11:43.981Z,101410.66
2023-01-30T07:14:10.405Z,101424.22
2023-01-30T07:16:36.749Z,101421.31
2023-01-30T07:19:04.442Z,101430.19
2023-01-30T07:21:30.755Z,101429.81
2023-01-30T07:23:57.074Z,101437.59
2023-01-30T07:26:23.464Z,101442.88
2023-01-30T07:28:49.791Z,101441.78
2023-01-30T07:31:16.122Z,101438.91
2023-01-30T07:33:42.417Z,101446.00
2023-01-30T07:36:10.319Z,101446.66
2023-01-30T07:38:36.623Z,101439.81
2023-01-30T07:41:02.946Z,101457.16
2023-01-30T07:43:29.263Z,101453.66
2023-01-30T07:45:55.672Z,101465.53
2023-01-30T07:48:22.005Z,101465.41
2023-01-30T07:50:48.345Z,101461.03
2023-01-30T07:53:16.742Z,101457.34
2023-01-30T07:55:43.217Z,101462.63
2023-01-30T07:58:11.440Z,101465.13
2023-01-30T08:00:37.719Z,101458.66
2023-01-30T08:03:04.052Z,101452.22
2023-01-30T08:05:30.332Z,101455.28
2023-01-30T08:07:56.879Z,101459.72
2023-01-30T08:10:24.614Z,101454.75
2023-01-30T08:12:50.937Z,101453.41
2023-01-30T08:15:17.365Z,101466.81
2023-01-30T08:17:43.659Z,101469.81
2023-01-30T08:20:10.523Z,101466.16
2023-01-30T08:22:36.807Z,101474.97
2023-01-30T08:25:03.251Z,101477.13
2023-01-30T08:27:30.963Z,101480.00
2023-01-30T08:29:57.321Z,101494.50
2023-01-30T08:32:23.597Z,101499.31
2023-01-30T08:34:49.891Z,101510.38
2023-01-30T08:37:16.216Z,101508.22
2023-01-30T08:39:42.541Z,101507.56
2023-01-30T08:42:08.879Z,101516.09
2023-01-30T08:44:36.539Z,101506.47
2023-01-30T08:47:02.879Z,101506.94
2023-01-30T08:49:29.150Z,101515.34
2023-01-30T08:51:55.457Z,101515.97
2023-01-30T08:54:21.893Z,101517.19
2023-01-30T08:56:48.245Z,101526.47
2023-01-30T08:59:14.668Z,101510.00
2023-01-30T09:01:42.322Z,101522.66
2023-01-30T09:04:08.649Z,101511.25
2023-01-30T09:06:35.011Z,101525.41
2023-01-30T09:09:01.329Z,101525.44
2023-01-30T09:11:27.676Z,101534.69
2023-01-30T09:13:53.970Z,101535.75
2023-01-30T09:16:20.434Z,101546.72
2023-01-30T09:18:48.303Z,101552.59
2023-01-30T09:21:14.611Z,101556.09
2023-01-30T09:23:41.251Z,101551.66
2023-01-30T09:26:07.596Z,101558.66
2023-01-30T09:28:34.375Z,101561.81
2023-01-30T09:31:01.248Z,101551.34
2023-01-30T09:33:27.963Z,101548.38
2023-01-30T09:35:55.687Z,101560.13
2023-01-30T09:38:22.024Z,101567.09
2023-01-30T09:40:53.865Z,101561.72
2023-01-30T09:43:28.548Z,101561.59
2023-01-30T09:46:08.461Z,101564.59
2023-01-30T09:48:39.594Z,101566.41
2023-01-30T09:51:20.534Z,101546.97
2023-01-30T09:53:54.242Z,101564.16
2023-01-30T09:56:20.657Z,101590.13
2023-01-30T09:58:49.338Z,101565.47
2023-01-30T10:01:21.536Z,101580.38
2023-01-30T10:03:54.880Z,101577.13
2023-01-30T10:06:22.830Z,101591.81
2023-01-30T10:08:52.488Z,101595.66
2023-01-30T10:11:27.035Z,101593.00
2023-01-30T10:14:10.676Z,101591.09
2023-01-30T10:16:40.378Z,101584.97
2023-01-30T10:19:18.141Z,101603.81
2023-01-30T10:21:52.010Z,101612.50
2023-01-30T10:24:26.233Z,101611.75
2023-01-30T10:26:53.012Z,101604.78
2023-01-30T10:29:21.874Z,101604.94
2023-01-30T10:31:49.302Z,101638.09
2023-01-30T10:34:19.012Z,101607.44
2023-01-30T10:36:49.546Z,101604.66
2023-01-30T10:39:22.369Z,101606.72
2023-01-30T10:41:51.941Z,101595.66
2023-01-30T10:44:22.073Z,101621.03
2023-01-30T10:46:55.925Z,101608.03
2023-01-30T10:49:25.803Z,101615.00
2023-01-30T10:51:56.464Z,101619.34
2023-01-30T10:54:28.112Z,101644.63
2023-01-30T10:56:57.640Z,101640.03
2023-01-30T10:59:24.687Z,101620.41
2023-01-30T11:02:04.918Z,101632.47
2023-01-30T11:04:36.297Z,101647.13
2023-01-30T11:07:02.948Z,101623.31
2023-01-30T11:09:41.021Z,101635.69
2023-01-30T11:12:07.368Z,101637.75
2023-01-30T11:14:48.638Z,101636.19
2023-01-30T11:17:15.989Z,101635.47
2023-01-30T11:19:42.389Z,101619.81
2023-01-30T11:22:12.966Z,101626.69
2023-01-30T11:24:41.954Z,101630.53
2023-01-30T11:27:12.192Z,101624.41
2023-01-30T11:29:39.106Z,101621.66
2023-01-30T11:32:06.549Z,101622.59
2023-01-30T11:34:32.889Z,101625.59
2023-01-30T11:37:12.448Z,101629.59
2023-01-30T11:39:47.300Z,101631.13
2023-01-30T11:42:18.074Z,101655.56
2023-01-30T11:44:44.398Z,101651.09
2023-01-30T11:47:17.846Z,101644.63
2023-01-30T11:49:59.080Z,101656.50
2023-01-30T11:52:30.300Z,101653.25
2023-01-30T11:54:59.657Z,101643.88
2023-01-30T11:57:27.456Z,101642.81
2023-01-30T11:59:55.705Z,101636.31
2023-01-30T12:02:24.261Z,101650.41
2023-01-30T12:04:51.447Z,101640.53
2023-01-30T12:07:20.663Z,101644.25
2023-01-30T12:09:47.215Z,101647.00
2023-01-30T12:12:28.943Z,101640.41
2023-01-30T12:15:00.678Z,101654.94
2023-01-30T12:17:32.415Z,101640.63
2023-01-30T12:20:02.275Z,101650.38
2023-01-30T12:22:33.469Z,101657.97
2023-01-30T12:25:00.367Z,101652.28
2023-01-30T12:27:35.279Z,101639.69
2023-01-30T12:30:04.750Z,101631.72
2023-01-30T12:32:32.028Z,101635.69
2023-01-30T12:34:58.330Z,101640.53
2023-01-30T12:37:32.363Z,101645.59
2023-01-30T12:40:04.515Z,101627.50
2023-01-30T12:42:45.213Z,101636.16
2023-01-30T12:45:19.425Z,101646.28
2023-01-30T12:48:07.118Z,101641.47
2023-01-30T12:50:39.799Z,101645.31
2023-01-30T12:53:16.174Z,101640.97
2023-01-30T12:55:46.201Z,101638.00
2023-01-30T12:58:17.156Z,101640.13
2023-01-30T13:00:49.161Z,101652.88
2023-01-30T13:03:22.341Z,101667.91
2023-01-30T13:05:51.566Z,101668.25
2023-01-30T13:08:27.349Z,101667.41
2023-01-30T13:10:58.994Z,101674.69
2023-01-30T13:13:30.752Z,101673.34
2023-01-30T13:16:02.047Z,101683.50
2023-01-30T13:18:32.342Z,101694.66
2023-01-30T13:21:01.608Z,101687.44
2023-01-30T13:23:34.924Z,101714.75
2023-01-30T13:26:04.759Z,101680.94
2023-01-30T13:28:35.821Z,101685.53
2023-01-30T13:31:04.912Z,101688.41
2023-01-30T13:33:33.038Z,101703.56
2023-01-30T13:36:04.077Z,101708.88
2023-01-30T13:38:31.660Z,101708.16
2023-01-30T13:40:58.732Z,101702.88
2023-01-30T13:43:27.144Z,101709.97
2023-01-30T13:45:56.864Z,101697.81
2023-01-30T13:48:29.193Z,101714.88
2023-01-30T13:51:00.796Z,101710.56
2023-01-30T13:53:30.041Z,101718.28
2023-01-30T13:55:57.932Z,101730.78
2023-01-30T13:58:34.495Z,101736.56
2023-01-30T14:01:02.409Z,101742.44
2023-01-30T14:03:29.988Z,101738.25
2023-01-30T14:06:00.279Z,101742.31
2023-01-30T14:08:27.717Z,101755.34
2023-01-30T14:10:54.904Z,101759.06
2023-01-30T14:13:22.058Z,101771.72
2023-01-30T14:15:53.450Z,101766.78
2023-01-30T14:18:22.445Z,101765.81
2023-01-30T14:20:49.826Z,101779.78
2023-01-30T14:23:21.066Z,101769.06
2023-01-30T14:25:49.167Z,101776.16
2023-01-30T14:28:48.473Z,101785.66
2023-01-30T14:31:35.583Z,101779.66
2023-01-30T14:34:03.317Z,101787.94
2023-01-30T14:36:33.682Z,101792.41
2023-01-30T14:39:14.891Z,101805.75
2023-01-30T14:41:41.211Z,101803.97
2023-01-30T14:44:07.557Z,101815.50
2023-01-30T14:46:54.470Z,101806.97
2023-01-30T14:49:32.738Z,101817.69
2023-01-30T14:52:00.171Z,101825.69
2023-01-30T14:54:40.275Z,101829.72
2023-01-30T14:57:16.965Z,101837.53
2023-01-30T14:59:54.114Z,101842.53
2023-01-30T15:02:30.324Z,101853.72
2023-01-30T15:05:03.653Z,101861.53
2023-01-30T15:07:30.808Z,101857.44
2023-01-30T15:09:58.762Z,101861.78
2023-01-30T15:12:41.212Z,101856.56
2023-01-30T15:15:15.543Z,101864.31
2023-01-30T15:17:48.558Z,101868.16
2023-01-30T15:20:23.852Z,101875.75
2023-01-30T15:22:56.933Z,101872.78
2023-01-30T15:25:29.943Z,101884.00
2023-01-30T15:28:03.019Z,101878.94
2023-01-30T15:30:40.329Z,101883.88
2023-01-30T15:33:08.868Z,101887.63
2023-01-30T15:35:36.539Z,101896.53
2023-01-30T15:38:02.968Z,101902.63
2023-01-30T15:40:29.643Z,101906.66
2023-01-30T15:43:08.024Z,101911.19
2023-01-30T15:45:38.546Z,101912.47
2023-01-30T15:48:14.672Z,101919.91
2023-01-30T15:50:46.994Z,101928.97
2023-01-30T15:53:14.696Z,101935.00
2023-01-30T15:55:41.870Z,101933.03
2023-01-30T15:58:10.862Z,101937.66
2023-01-30T16:00:40.225Z,101938.94
2023-01-30T16:03:11.192Z,101951.25
2023-01-30T16:05:46.137Z,101952.56
2023-01-30T16:08:18.445Z,101947.50
2023-01-30T16:10:46.275Z,101947.81
2023-01-30T16:13:12.702Z,101959.44
2023-01-30T16:15:41.865Z,101963.09
2023-01-30T16:18:17.873Z,101958.03
2023-01-30T16:20:58.990Z,101967.66
2023-01-30T16:23:31.544Z,101979.88
2023-01-30T16:25:58.725Z,101976.63
2023-01-30T16:28:26.652Z,101977.44
2023-01-30T16:30:57.462Z,101978.53
2023-01-30T16:33:23.885Z,101988.16
2023-01-30T16:35:50.201Z,101978.34
2023-01-30T16:38:28.565Z,101994.00
2023-01-30T16:40:56.232Z,102005.66
2023-01-30T16:43:23.259Z,101995.91
2023-01-30T16:46:07.618Z,101995.84
2023-01-30T16:48:34.708Z,102015.84
2023-01-30T16:51:10.513Z,102008.91
2023-01-30T16:53:37.061Z,102030.88
2023-01-30T16:56:06.953Z,102022.44
2023-01-30T16:58:34.502Z,102020.25
2023-01-30T17:01:02.009Z,102020.13
2023-01-30T17:03:29.969Z,102029.34
2023-01-30T17:05:56.990Z,102036.03
2023-01-30T17:08:45.963Z,102039.91
2023-01-30T17:11:28.226Z,102044.06
2023-01-30T17:14:09.198Z,102048.59
2023-01-30T17:16:35.689Z,102051.88
2023-01-30T17:19:02.338Z,102042.81
2023-01-30T17:21:30.219Z,102048.94
2023-01-30T17:23:57.830Z,102045.53
2023-01-30T17:26:25.580Z,102046.69
2023-01-30T17:28:51.878Z,102054.00
2023-01-30T17:31:18.311Z,102060.56
2023-01-30T17:33:44.710Z,102057.81
2023-01-30T17:36:15.025Z,102057.16
2023-01-30T17:38:41.330Z,102058.63
2023-01-30T17:41:11.527Z,102064.56
2023-01-30T17:43:39.433Z,102069.28
2023-01-30T17:46:05.776Z,102075.34
2023-01-30T17:48:32.074Z,102079.84
2023-01-30T17:50:58.411Z,102085.88
2023-01-30T17:53:24.790Z,102094.47
2023-01-30T17:55:51.088Z,102089.84
2023-01-30T17:58:17.819Z,102097.84
2023-01-30T18:00:45.452Z,102100.25
2023-01-30T18:03:11.792Z,102109.13
2023-01-30T18:05:38.154Z,102109.50
2023-01-30T18:08:04.586Z,102129.66
2023-01-30T18:10:30.978Z,102136.28
2023-01-30T18:12:57.420Z,102132.28
2023-01-30T18:15:23.981Z,102139.09
2023-01-30T18:17:51.831Z,102133.91
2023-01-30T18:20:19.773Z,102142.53
2023-01-30T18:22:46.596Z,102138.75
2023-01-30T18:25:12.977Z,102155.38
2023-01-30T18:27:39.551Z,102164.00
2023-01-30T18:30:06.955Z,102172.50
2023-01-30T18:32:40.680Z,102160.94
2023-01-30T18:35:14.874Z,102161.63
2023-01-30T18:37:41.209Z,102141.53
2023-01-30T18:40:08.251Z,102145.69
2023-01-30T18:42:34.729Z,102145.66
2023-01-30T18:45:09.023Z,102149.84
2023-01-30T18:47:35.469Z,102148.34
2023-01-30T18:50:01.779Z,102152.59
2023-01-30T18:52:29.478Z,102152.81
2023-01-30T18:54:55.805Z,102155.00
2023-01-30T18:57:22.117Z,102161.03
2023-01-30T18:59:48.411Z,102166.84
2023-01-30T19:02:15.291Z,102174.28
2023-01-30T19:04:41.612Z,102174.22
2023-01-30T19:07:07.940Z,102172.91
2023-01-30T19:09:35.618Z,102169.56
2023-01-30T19:12:01.938Z,102163.06
2023-01-30T19:14:28.262Z,102162.47
2023-01-30T19:16:54.613Z,102171.56
2023-01-30T19:19:21.509Z,102175.22
2023-01-30T19:21:47.922Z,102172.84
2023-01-30T19:24:15.419Z,102172.91
2023-01-30T19:26:43.138Z,102175.84
2023-01-30T19:29:09.627Z,102179.56
2023-01-30T19:31:36.162Z,102184.13
2023-01-30T19:34:03.442Z,102178.03
2023-01-30T19:36:31.274Z,102175.84
2023-01-30T19:38:59.653Z,102170.28
2023-01-30T19:41:27.234Z,102169.72
2023-01-30T19:43:55.551Z,102171.50
2023-01-30T19:46:22.203Z,102173.44
2023-01-30T19:48:48.855Z,102184.59
2023-01-30T19:51:16.931Z,102188.66
2023-01-30T19:53:44.573Z,102204.69
2023-01-30T19:56:11.771Z,102202.69
2023-01-30T19:58:38.901Z,102204.63
2023-01-30T20:01:07.974Z,102206.25
2023-01-30T20:03:35.310Z,102209.13
2023-01-30T20:06:08.998Z,102211.16
2023-01-30T20:08:36.615Z,102209.94
2023-01-30T20:11:04.114Z,102211.66
2023-01-30T20:13:30.446Z,102211.13
2023-01-30T20:15:56.813Z,102208.75
2023-01-30T20:18:24.532Z,102213.34
2023-01-30T20:20:50.831Z,102228.34
2023-01-30T20:23:17.151Z,102219.19
2023-01-30T20:25:43.487Z,102222.44
2023-01-30T20:28:09.790Z,102223.38
2023-01-30T20:30:39.136Z,102224.91
2023-01-30T20:33:05.463Z,102232.09
2023-01-30T20:35:34.758Z,102236.44
2023-01-30T20:38:01.905Z,102239.16
2023-01-30T20:40:28.215Z,102231.09
2023-01-30T20:42:54.532Z,102240.28
2023-01-30T20:45:20.821Z,102235.63
2023-01-30T20:47:47.149Z,102235.25
2023-01-30T20:50:13.545Z,102234.25
2023-01-30T20:52:41.318Z,102240.38
2023-01-30T20:55:08.066Z,102235.94
2023-01-30T20:57:34.406Z,102234.94
2023-01-30T21:00:00.690Z,102229.06
2023-01-30T21:02:27.014Z,102247.00
2023-01-30T21:04:53.347Z,102243.09
2023-01-30T21:07:19.702Z,102235.34
2023-01-30T21:09:47.348Z,102248.88
2023-01-30T21:12:13.771Z,102248.88
2023-01-30T21:14:40.106Z,102241.38
2023-01-30T21:17:06.438Z,102242.72
2023-01-30T21:19:32.756Z,102246.69
2023-01-30T21:22:01.210Z,102252.19
2023-01-30T21:24:28.300Z,102251.41
2023-01-30T21:26:58.000Z,102247.78
2023-01-30T21:29:25.918Z,102259.78
2023-01-30T21:31:52.886Z,102260.13
2023-01-30T21:34:19.322Z,102264.53
2023-01-30T21:36:45.676Z,102269.59
2023-01-30T21:39:15.299Z,102267.25
2023-01-30T21:41:42.295Z,102257.34
2023-01-30T21:44:10.466Z,102256.50
2023-01-30T21:46:38.268Z,102263.69
2023-01-30T21:49:04.964Z,102262.47
2023-01-30T21:51:31.481Z,102274.53
2023-01-30T21:53:58.216Z,102278.25
2023-01-30T21:56:24.595Z,102276.22
2023-01-30T21:58:50.931Z,102270.97
2023-01-30T22:01:18.677Z,102256.22
2023-01-30T22:03:45.030Z,102248.72
2023-01-30T22:06:11.578Z,102254.16
2023-01-30T22:08:38.714Z,102248.72
2023-01-30T22:11:06.364Z,102251.66
2023-01-30T22:13:32.901Z,102247.94
2023-01-30T22:16:00.489Z,102254.91
2023-01-30T22:18:28.210Z,102257.75
2023-01-30T22:20:59.927Z,102271.13
2023-01-30T22:23:29.870Z,102279.94
2023-01-30T22:25:56.189Z,102281.81
2023-01-30T22:28:22.481Z,102286.28
2023-01-30T22:30:48.858Z,102279.78
2023-01-30T22:33:15.159Z,102272.03
2023-01-30T22:35:49.379Z,102269.91
2023-01-30T22:38:15.685Z,102283.66
2023-01-30T22:40:42.114Z,102282.94
2023-01-30T22:43:08.426Z,102285.50
2023-01-30T22:45:35.112Z,102278.16
2023-01-30T22:48:01.421Z,102273.06
2023-01-30T22:50:27.748Z,102269.28
2023-01-30T22:52:55.607Z,102276.22
2023-01-30T22:55:22.061Z,102264.00
2023-01-30T22:57:48.524Z,102262.66
2023-01-30T23:00:15.212Z,102268.09
2023-01-30T23:02:41.540Z,102262.75
2023-01-30T23:05:08.038Z,102265.28
2023-01-30T23:07:34.356Z,102266.38
2023-01-30T23:10:02.031Z,102263.34
2023-01-30T23:12:29.517Z,102273.75
2023-01-30T23:14:55.839Z,102263.34
2023-01-30T23:17:22.165Z,102267.19
2023-01-30T23:19:48.498Z,102262.50
2023-01-30T23:22:14.859Z,102260.16
2023-01-30T23:24:41.173Z,102250.56
2023-01-30T23:27:09.206Z,102262.78
2023-01-30T23:29:35.841Z,102261.94
2023-01-30T23:32:02.234Z,102253.28
2023-01-30T23:34:28.586Z,102240.53
2023-01-30T23:36:54.909Z,102238.59
2023-01-30T23:39:21.237Z,102249.19
2023-01-30T23:41:47.569Z,102255.06
2023-01-30T23:44:15.270Z,102247.41
2023-01-30T23:46:41.919Z,102240.25
2023-01-30T23:49:08.696Z,102242.09
2023-01-30T23:51:35.653Z,102237.97
2023-01-30T23:54:05.094Z,102245.16
2023-01-30T23:56:32.848Z,102250.41
2023-01-30T23:58:59.402Z,102253.78
